createdAt,value
2022-10-10T00:02:08.979Z,9.56
2022-10-10T00:04:35.283Z,9.52
2022-10-10T00:07:01.566Z,9.58
2022-10-10T00:09:27.855Z,9.63
2022-10-10T00:11:54.126Z,9.52
2022-10-10T00:14:20.384Z,9.53
2022-10-10T00:16:46.643Z,9.57
2022-10-10T00:19:12.941Z,9.60
2022-10-10T00:21:39.206Z,9.51
2022-10-10T00:24:05.474Z,9.55
2022-10-10T00:26:31.724Z,9.57
2022-10-10T00:28:57.978Z,9.57
2022-10-10T00:31:24.363Z,9.61
2022-10-10T00:33:50.619Z,9.59
2022-10-10T00:36:17.018Z,9.56
2022-10-10T00:38:43.279Z,9.55
2022-10-10T00:41:09.536Z,9.54
2022-10-10T00:43:35.794Z,9.57
2022-10-10T00:46:02.107Z,9.60
2022-10-10T00:48:28.369Z,9.54
2022-10-10T00:50:54.648Z,9.58
2022-10-10T00:53:20.929Z,9.53
2022-10-10T00:55:47.691Z,9.61
2022-10-10T00:58:13.964Z,9.57
2022-10-10T01:00:40.267Z,9.59
2022-10-10T01:03:06.575Z,9.56
2022-10-10T01:05:32.834Z,9.58
2022-10-10T01:07:59.085Z,9.56
2022-10-10T01:10:25.391Z,9.54
2022-10-10T01:12:51.896Z,9.56
2022-10-10T01:15:18.486Z,9.47
2022-10-10T01:17:44.762Z,9.45
2022-10-10T01:20:11.034Z,9.40
2022-10-10T01:22:37.281Z,9.37
2022-10-10T01:25:06.815Z,9.45
2022-10-10T01:27:33.102Z,9.50
2022-10-10T01:29:59.384Z,9.44
2022-10-10T01:32:25.630Z,9.44
2022-10-10T01:34:51.905Z,9.43
2022-10-10T01:37:18.176Z,9.38
2022-10-10T01:39:44.448Z,9.39
2022-10-10T01:42:10.770Z,9.41
2022-10-10T01:44:37.154Z,9.38
2022-10-10T01:47:03.434Z,9.42
2022-10-10T01:49:29.701Z,9.44
2022-10-10T01:51:55.954Z,9.39
2022-10-10T01:54:22.207Z,9.38
2022-10-10T01:56:48.451Z,9.35
2022-10-10T01:59:14.711Z,9.35
2022-10-10T02:01:40.965Z,9.34
2022-10-10T02:04:07.241Z,9.31
2022-10-10T02:06:33.497Z,9.30
2022-10-10T02:08:59.803Z,9.23
2022-10-10T02:11:26.060Z,9.31
2022-10-10T02:13:52.339Z,9.29
2022-10-10T02:16:18.808Z,9.32
2022-10-10T02:18:45.802Z,9.25
2022-10-10T02:21:12.056Z,9.26
2022-10-10T02:23:38.298Z,9.26
2022-10-10T02:26:04.555Z,9.26
2022-10-10T02:28:30.859Z,9.30
2022-10-10T02:30:57.198Z,9.28
2022-10-10T02:33:23.451Z,9.28
2022-10-10T02:35:49.702Z,9.30
2022-10-10T02:38:16.023Z,9.29
2022-10-10T02:40:42.292Z,9.27
2022-10-10T02:43:08.601Z,9.29
2022-10-10T02:45:34.887Z,9.33
2022-10-10T02:48:01.136Z,9.34
2022-10-10T02:50:27.377Z,9.38
2022-10-10T02:52:53.869Z,9.40
2022-10-10T02:55:20.259Z,9.42
2022-10-10T02:57:46.517Z,9.45
2022-10-10T03:00:12.762Z,9.44
2022-10-10T03:02:39.051Z,9.40
2022-10-10T03:05:06.030Z,9.43
2022-10-10T03:07:32.391Z,9.52
2022-10-10T03:09:58.652Z,9.51
2022-10-10T03:12:24.901Z,9.54
2022-10-10T03:14:51.152Z,9.46
2022-10-10T03:17:17.406Z,9.55
2022-10-10T03:19:43.683Z,9.50
2022-10-10T03:22:09.946Z,9.50
2022-10-10T03:24:36.209Z,9.55
2022-10-10T03:27:02.473Z,9.55
2022-10-10T03:29:28.754Z,9.52
2022-10-10T03:31:55.038Z,9.56
2022-10-10T03:34:21.299Z,9.58
2022-10-10T03:36:47.548Z,9.57
2022-10-10T03:39:13.799Z,9.57
2022-10-10T03:41:40.064Z,9.59
2022-10-10T03:44:06.340Z,9.51
2022-10-10T03:46:32.597Z,9.50
2022-10-10T03:48:58.866Z,9.51
2022-10-10T03:51:25.161Z,9.49
2022-10-10T03:53:51.465Z,9.49
2022-10-10T03:56:17.726Z,9.50
2022-10-10T03:58:43.995Z,9.40
2022-10-10T04:01:10.332Z,9.45
2022-10-10T04:03:36.665Z,9.48
2022-10-10T04:06:02.940Z,9.45
2022-10-10T04:08:30.507Z,9.43
2022-10-10T04:10:56.815Z,9.40
2022-10-10T04:13:23.104Z,9.39
2022-10-10T04:15:49.367Z,9.44
2022-10-10T04:18:15.640Z,9.45
2022-10-10T04:20:41.883Z,9.39
2022-10-10T04:23:08.141Z,9.39
2022-10-10T04:25:34.422Z,9.40
2022-10-10T04:28:01.410Z,9.40
2022-10-10T04:30:27.736Z,9.37
2022-10-10T04:32:54.091Z,9.40
2022-10-10T04:35:20.392Z,9.41
2022-10-10T04:37:46.693Z,9.40
2022-10-10T04:40:13.112Z,9.41
2022-10-10T04:42:39.481Z,9.44
2022-10-10T04:45:07.198Z,9.46
2022-10-10T04:47:33.473Z,9.49
2022-10-10T04:49:59.752Z,9.46
2022-10-10T04:52:26.015Z,9.46
2022-10-10T04:54:52.284Z,9.42
2022-10-10T04:57:18.579Z,9.48
2022-10-10T04:59:45.082Z,9.51
2022-10-10T05:02:11.360Z,9.51
2022-10-10T05:04:37.657Z,9.48
2022-10-10T05:07:03.905Z,9.51
2022-10-10T05:09:30.171Z,9.51
2022-10-10T05:11:56.421Z,9.54
2022-10-10T05:14:22.796Z,9.55
2022-10-10T05:16:49.034Z,9.46
2022-10-10T05:19:15.308Z,9.51
2022-10-10T05:21:41.589Z,9.53
2022-10-10T05:24:07.983Z,9.51
2022-10-10T05:26:34.319Z,9.57
2022-10-10T05:29:01.594Z,9.56
2022-10-10T05:31:28.658Z,9.48
2022-10-10T05:33:54.920Z,9.52
2022-10-10T05:36:21.208Z,9.47
2022-10-10T05:38:54.314Z,9.58
2022-10-10T05:41:20.588Z,9.57
2022-10-10T05:43:46.886Z,9.62
2022-10-10T05:46:13.177Z,9.65
2022-10-10T05:48:39.591Z,9.65
2022-10-10T05:51:07.319Z,9.69
2022-10-10T05:53:33.579Z,9.70
2022-10-10T05:55:59.832Z,9.70
2022-10-10T05:58:26.126Z,9.69
2022-10-10T06:00:52.471Z,9.75
2022-10-10T06:03:18.806Z,9.79
2022-10-10T06:05:45.066Z,9.78
2022-10-10T06:08:12.400Z,9.82
2022-10-10T06:10:38.892Z,9.90
2022-10-10T06:13:05.138Z,9.91
2022-10-10T06:15:31.382Z,9.99
2022-10-10T06:17:57.630Z,10.01
2022-10-10T06:20:23.915Z,10.13
2022-10-10T06:22:50.394Z,10.18
2022-10-10T06:25:38.264Z,10.29
2022-10-10T06:28:03.080Z,10.39
2022-10-10T06:30:29.604Z,10.52
2022-10-10T06:32:57.592Z,10.49
2022-10-10T06:35:23.928Z,10.58
2022-10-10T06:37:50.189Z,10.58
2022-10-10T06:40:16.482Z,10.70
2022-10-10T06:42:42.740Z,10.77
2022-10-10T06:45:09.009Z,10.79
2022-10-10T06:47:35.349Z,10.86
2022-10-10T06:50:02.335Z,10.88
2022-10-10T06:52:28.611Z,10.96
2022-10-10T06:54:54.911Z,10.97
2022-10-10T06:57:21.193Z,11.06
2022-10-10T06:59:47.452Z,11.23
2022-10-10T07:02:13.694Z,11.12
2022-10-10T07:04:39.935Z,11.14
2022-10-10T07:07:06.186Z,11.24
2022-10-10T07:09:32.443Z,11.30
2022-10-10T07:11:58.694Z,11.32
2022-10-10T07:14:24.938Z,11.35
2022-10-10T07:16:51.207Z,11.36
2022-10-10T07:19:19.015Z,11.38
2022-10-10T07:21:45.285Z,11.50
2022-10-10T07:24:11.544Z,11.54
2022-10-10T07:26:38.255Z,11.53
2022-10-10T07:29:04.519Z,11.64
2022-10-10T07:31:30.779Z,11.74
2022-10-10T07:33:57.041Z,11.90
2022-10-10T07:36:23.339Z,11.84
2022-10-10T07:38:51.872Z,11.95
2022-10-10T07:41:18.152Z,12.15
2022-10-10T07:43:44.404Z,12.17
2022-10-10T07:46:12.286Z,12.15
2022-10-10T07:48:38.700Z,12.28
2022-10-10T07:51:04.978Z,12.31
2022-10-10T07:53:31.226Z,12.38
2022-10-10T07:55:57.486Z,12.61
2022-10-10T07:58:23.736Z,12.59
2022-10-10T08:00:50.005Z,12.56
2022-10-10T08:03:16.265Z,12.61
2022-10-10T08:05:42.673Z,12.64
2022-10-10T08:08:08.954Z,12.76
2022-10-10T08:10:35.263Z,12.79
2022-10-10T08:13:01.511Z,13.01
2022-10-10T08:15:30.198Z,13.06
2022-10-10T08:18:00.011Z,13.15
2022-10-10T08:20:26.287Z,13.10
2022-10-10T08:22:52.778Z,13.10
2022-10-10T08:25:19.212Z,13.12
2022-10-10T08:27:45.537Z,13.19
2022-10-10T08:30:11.811Z,13.32
2022-10-10T08:32:38.087Z,13.31
2022-10-10T08:35:04.334Z,13.34
2022-10-10T08:37:35.252Z,13.53
2022-10-10T08:40:03.605Z,13.44
2022-10-10T08:42:29.864Z,13.50
2022-10-10T08:44:56.107Z,13.72
2022-10-10T08:47:22.368Z,13.99
2022-10-10T08:49:48.617Z,14.04
2022-10-10T08:52:14.916Z,13.95
2022-10-10T08:54:41.166Z,13.96
2022-10-10T08:57:07.446Z,13.91
2022-10-10T08:59:33.712Z,14.12
2022-10-10T09:02:17.930Z,14.03
2022-10-10T09:04:45.340Z,14.12
2022-10-10T09:07:12.126Z,14.19
2022-10-10T09:09:38.378Z,14.16
2022-10-10T09:12:04.627Z,14.18
2022-10-10T09:14:30.870Z,14.14
2022-10-10T09:16:57.142Z,14.40
2022-10-10T09:19:24.631Z,14.55
2022-10-10T09:21:51.148Z,14.49
2022-10-10T09:24:17.462Z,14.71
2022-10-10T09:26:44.260Z,14.87
2022-10-10T09:29:10.530Z,15.04
2022-10-10T09:31:36.792Z,15.00
2022-10-10T09:34:03.060Z,15.40
2022-10-10T09:36:30.248Z,15.65
2022-10-10T09:38:56.532Z,15.89
2022-10-10T09:41:22.814Z,16.10
2022-10-10T09:43:49.142Z,16.01
2022-10-10T09:46:15.409Z,16.26
2022-10-10T09:48:41.669Z,16.01
2022-10-10T09:51:07.920Z,15.74
2022-10-10T09:53:34.175Z,16.19
2022-10-10T09:56:00.439Z,16.06
2022-10-10T09:58:26.756Z,16.14
2022-10-10T10:00:53.775Z,16.25
2022-10-10T10:03:20.092Z,16.39
2022-10-10T10:05:46.451Z,16.27
2022-10-10T10:08:12.712Z,16.38
2022-10-10T10:10:39.068Z,16.41
2022-10-10T10:13:05.892Z,16.57
2022-10-10T10:15:32.146Z,16.59
2022-10-10T10:17:58.461Z,16.58
2022-10-10T10:20:24.719Z,16.36
2022-10-10T10:25:22.158Z,16.39
2022-10-10T10:27:48.498Z,16.28
2022-10-10T10:30:14.806Z,16.39
2022-10-10T10:32:41.097Z,16.14
2022-10-10T10:35:07.723Z,16.38
2022-10-10T10:37:33.983Z,16.24
2022-10-10T10:40:00.240Z,16.36
2022-10-10T10:42:26.646Z,16.48
2022-10-10T10:44:52.908Z,16.32
2022-10-10T10:47:19.154Z,16.31
2022-10-10T10:49:45.404Z,16.32
2022-10-10T10:52:11.670Z,16.33
2022-10-10T10:54:40.268Z,16.44
2022-10-10T10:57:10.897Z,16.50
2022-10-10T11:00:17.112Z,16.42
2022-10-10T11:02:43.618Z,16.50
2022-10-10T11:05:24.798Z,16.47
2022-10-10T11:07:53.413Z,16.28
2022-10-10T11:10:19.660Z,16.38
2022-10-10T11:12:45.924Z,16.43
2022-10-10T11:15:12.193Z,16.48
2022-10-10T11:17:38.457Z,16.36
2022-10-10T11:20:04.719Z,16.59
2022-10-10T11:22:31.007Z,16.55
2022-10-10T11:24:57.272Z,16.43
2022-10-10T11:27:23.523Z,16.52
2022-10-10T11:29:49.789Z,16.50
2022-10-10T11:32:16.111Z,16.42
2022-10-10T11:34:42.400Z,16.41
2022-10-10T11:37:08.659Z,16.56
2022-10-10T11:39:35.056Z,16.54
2022-10-10T11:42:02.350Z,16.56
2022-10-10T11:44:28.594Z,16.65
2022-10-10T11:46:54.879Z,16.68
2022-10-10T11:49:21.138Z,16.74
2022-10-10T11:51:47.400Z,16.80
2022-10-10T11:54:13.656Z,16.68
2022-10-10T11:56:40.121Z,16.52
2022-10-10T11:59:06.420Z,16.61
2022-10-10T12:01:32.680Z,16.68
2022-10-10T12:03:58.987Z,16.68
2022-10-10T12:06:25.324Z,16.67
2022-10-10T12:08:51.614Z,16.81
2022-10-10T12:11:17.926Z,16.74
2022-10-10T12:13:44.231Z,16.85
2022-10-10T12:16:10.516Z,16.84
2022-10-10T12:18:36.781Z,16.78
2022-10-10T12:21:03.177Z,17.00
2022-10-10T12:23:29.428Z,17.15
2022-10-10T12:25:55.736Z,17.47
2022-10-10T12:28:22.099Z,17.47
2022-10-10T12:30:48.394Z,17.53
2022-10-10T12:33:14.638Z,17.60
2022-10-10T12:35:40.951Z,17.66
2022-10-10T12:38:07.298Z,17.74
2022-10-10T12:40:33.578Z,17.77
2022-10-10T12:42:59.826Z,17.89
2022-10-10T12:45:26.124Z,17.89
2022-10-10T12:48:05.025Z,17.83
2022-10-10T12:50:34.871Z,17.86
2022-10-10T12:53:01.735Z,17.68
2022-10-10T12:55:28.054Z,17.46
2022-10-10T12:57:54.535Z,17.43
2022-10-10T13:00:20.799Z,17.30
2022-10-10T13:02:47.060Z,17.26
2022-10-10T13:05:13.405Z,17.28
2022-10-10T13:07:39.846Z,17.29
2022-10-10T13:10:06.106Z,17.38
2022-10-10T13:12:32.577Z,17.31
2022-10-10T13:14:58.836Z,17.40
2022-10-10T13:17:25.120Z,17.51
2022-10-10T13:19:51.385Z,17.46
2022-10-10T13:22:17.657Z,17.45
2022-10-10T13:24:43.917Z,17.63
2022-10-10T13:27:10.169Z,17.50
2022-10-10T13:29:36.473Z,17.64
2022-10-10T13:32:02.841Z,17.60
2022-10-10T13:34:29.101Z,17.64
2022-10-10T13:36:55.723Z,17.52
2022-10-10T13:39:22.020Z,17.55
2022-10-10T13:41:48.316Z,17.52
2022-10-10T13:44:14.864Z,17.53
2022-10-10T13:46:41.138Z,17.60
2022-10-10T13:49:07.563Z,17.66
2022-10-10T13:51:33.938Z,17.63
2022-10-10T13:54:00.267Z,17.59
2022-10-10T13:56:26.590Z,17.53
2022-10-10T13:58:52.889Z,17.48
2022-10-10T14:01:19.183Z,17.53
2022-10-10T14:03:45.658Z,17.55
2022-10-10T14:06:11.918Z,17.59
2022-10-10T14:08:38.210Z,17.56
2022-10-10T14:11:05.044Z,17.50
2022-10-10T14:13:31.714Z,17.62
2022-10-10T14:15:57.968Z,17.66
2022-10-10T14:21:27.305Z,17.56
2022-10-10T14:23:53.627Z,17.55
2022-10-10T14:26:19.899Z,17.53
2022-10-10T14:28:46.242Z,17.40
2022-10-10T14:31:12.624Z,17.48
2022-10-10T14:33:38.873Z,17.46
2022-10-10T14:36:05.719Z,17.34
2022-10-10T14:38:31.991Z,17.32
2022-10-10T14:40:58.245Z,17.40
2022-10-10T14:43:24.708Z,17.23
2022-10-10T14:45:50.969Z,17.45
2022-10-10T14:48:17.226Z,17.33
2022-10-10T14:50:44.120Z,17.25
2022-10-10T14:53:10.384Z,17.42
2022-10-10T14:55:37.314Z,17.42
2022-10-10T14:58:03.575Z,17.33
2022-10-10T15:00:29.836Z,17.33
2022-10-10T15:02:56.150Z,17.31
2022-10-10T15:05:22.434Z,17.36
2022-10-10T15:07:53.337Z,17.13
2022-10-10T15:10:33.379Z,17.14
2022-10-10T15:13:00.242Z,17.10
2022-10-10T15:15:26.495Z,17.07
2022-10-10T15:17:52.783Z,17.04
2022-10-10T15:20:20.150Z,17.04
2022-10-10T15:22:46.532Z,17.09
2022-10-10T15:25:12.832Z,17.08
2022-10-10T15:27:39.131Z,17.16
2022-10-10T15:30:05.404Z,17.11
2022-10-10T15:32:31.679Z,17.01
2022-10-10T15:34:57.952Z,17.07
2022-10-10T15:37:24.215Z,16.98
2022-10-10T15:39:50.462Z,16.87
2022-10-10T15:42:22.342Z,16.80
2022-10-10T15:44:49.500Z,16.85
2022-10-10T15:47:15.778Z,16.75
2022-10-10T15:49:42.067Z,16.74
2022-10-10T15:52:08.321Z,16.67
2022-10-10T15:54:34.575Z,16.59
2022-10-10T15:57:00.888Z,16.48
2022-10-10T15:59:27.168Z,16.47
2022-10-10T16:01:55.548Z,16.44
2022-10-10T16:04:22.483Z,16.33
2022-10-10T16:06:54.552Z,16.28
2022-10-10T16:09:28.742Z,16.29
2022-10-10T16:11:55.348Z,16.24
2022-10-10T16:14:21.625Z,16.22
2022-10-10T16:16:47.877Z,16.12
2022-10-10T16:19:14.152Z,16.11
2022-10-10T16:21:40.402Z,16.11
2022-10-10T16:24:06.704Z,16.03
2022-10-10T16:26:34.491Z,16.04
2022-10-10T16:29:00.746Z,16.05
2022-10-10T16:31:27.038Z,15.98
2022-10-10T16:33:53.295Z,15.98
2022-10-10T16:36:19.580Z,15.94
2022-10-10T16:38:45.933Z,15.93
2022-10-10T16:41:28.813Z,15.89
2022-10-10T16:43:58.436Z,15.84
2022-10-10T16:46:27.239Z,15.81
2022-10-10T16:48:53.878Z,15.80
2022-10-10T16:51:20.168Z,15.74
2022-10-10T16:53:46.439Z,15.63
2022-10-10T16:56:12.718Z,15.65
2022-10-10T16:58:39.112Z,15.65
2022-10-10T17:01:06.375Z,15.61
2022-10-10T17:03:32.737Z,15.61
2022-10-10T17:05:58.994Z,15.57
2022-10-10T17:08:25.261Z,15.55
2022-10-10T17:10:51.590Z,15.50
2022-10-10T17:13:17.847Z,15.50
2022-10-10T17:15:44.118Z,15.50
2022-10-10T17:18:10.390Z,15.47
2022-10-10T17:20:36.695Z,15.40
2022-10-10T17:23:03.107Z,15.37
2022-10-10T17:25:31.134Z,15.34
2022-10-10T17:27:57.322Z,15.33
2022-10-10T17:30:23.613Z,15.26
2022-10-10T17:32:49.945Z,15.21
2022-10-10T17:35:16.261Z,15.20
2022-10-10T17:37:42.553Z,15.19
2022-10-10T17:40:08.840Z,15.14
2022-10-10T17:42:35.248Z,15.11
2022-10-10T17:45:01.530Z,15.09
2022-10-10T17:47:27.834Z,14.99
2022-10-10T17:49:54.376Z,14.74
2022-10-10T17:52:21.518Z,14.76
2022-10-10T17:54:47.921Z,14.75
2022-10-10T17:57:14.189Z,14.61
2022-10-10T17:59:40.447Z,14.59
2022-10-10T18:02:06.699Z,14.54
2022-10-10T18:04:32.963Z,14.50
2022-10-10T18:06:59.349Z,14.41
2022-10-10T18:09:25.695Z,14.26
2022-10-10T18:11:51.973Z,14.29
2022-10-10T18:14:18.243Z,14.27
2022-10-10T18:16:45.027Z,14.02
2022-10-10T18:19:11.343Z,13.72
2022-10-10T18:21:37.960Z,13.77
2022-10-10T18:24:07.096Z,13.79
2022-10-10T18:26:34.837Z,13.98
2022-10-10T18:29:01.091Z,13.76
2022-10-10T18:31:27.355Z,13.76
2022-10-10T18:33:53.645Z,13.88
2022-10-10T18:36:19.906Z,13.84
2022-10-10T18:38:46.159Z,13.63
2022-10-10T18:41:12.418Z,13.63
2022-10-10T18:43:39.738Z,13.48
2022-10-10T18:46:05.997Z,13.61
2022-10-10T18:48:32.356Z,13.45
2022-10-10T18:50:58.616Z,13.12
2022-10-10T18:53:24.876Z,13.33
2022-10-10T18:55:51.124Z,13.43
2022-10-10T18:58:20.053Z,13.09
2022-10-10T19:00:46.362Z,13.14
2022-10-10T19:03:13.574Z,13.26
2022-10-10T19:05:39.836Z,13.32
2022-10-10T19:08:06.082Z,13.38
2022-10-10T19:10:32.336Z,13.35
2022-10-10T19:12:58.591Z,13.03
2022-10-10T19:15:24.845Z,13.21
2022-10-10T19:17:51.160Z,13.16
2022-10-10T19:20:17.429Z,13.02
2022-10-10T19:22:43.688Z,12.74
2022-10-10T19:25:10.006Z,12.94
2022-10-10T19:27:36.263Z,12.92
2022-10-10T19:30:02.668Z,13.02
2022-10-10T19:32:29.005Z,12.96
2022-10-10T19:34:55.266Z,12.83
2022-10-10T19:37:21.570Z,12.89
2022-10-10T19:39:47.833Z,12.95
2022-10-10T19:42:14.096Z,12.93
2022-10-10T19:44:40.351Z,12.44
2022-10-10T19:47:06.616Z,12.35
2022-10-10T19:49:32.911Z,12.37
2022-10-10T19:51:59.167Z,12.53
2022-10-10T19:54:25.414Z,12.67
2022-10-10T19:56:51.841Z,12.51
2022-10-10T19:59:18.116Z,12.61
2022-10-10T20:01:44.619Z,12.16
2022-10-10T20:04:11.476Z,12.37
2022-10-10T20:06:37.795Z,12.38
2022-10-10T20:09:08.335Z,12.32
2022-10-10T20:11:36.026Z,12.46
2022-10-10T20:14:02.270Z,12.51
2022-10-10T20:16:28.554Z,12.51
2022-10-10T20:18:55.963Z,12.50
2022-10-10T20:21:22.826Z,12.49
2022-10-10T20:23:49.088Z,12.07
2022-10-10T20:26:15.361Z,12.05
2022-10-10T20:28:41.684Z,12.00
2022-10-10T20:31:08.011Z,12.10
2022-10-10T20:33:34.292Z,11.97
2022-10-10T20:36:00.535Z,12.15
2022-10-10T20:38:26.885Z,12.16
2022-10-10T20:40:53.144Z,12.23
2022-10-10T20:43:19.408Z,12.27
2022-10-10T20:45:45.668Z,12.26
2022-10-10T20:48:11.942Z,12.25
2022-10-10T20:50:38.214Z,12.22
2022-10-10T20:53:04.546Z,12.18
2022-10-10T20:55:30.824Z,12.19
2022-10-10T20:57:57.089Z,12.03
2022-10-10T21:00:23.340Z,12.08
2022-10-10T21:02:49.655Z,12.07
2022-10-10T21:05:15.925Z,11.99
2022-10-10T21:07:42.183Z,11.90
2022-10-10T21:10:08.438Z,11.62
2022-10-10T21:12:34.704Z,11.86
2022-10-10T21:15:02.392Z,11.90
2022-10-10T21:17:29.123Z,11.94
2022-10-10T21:19:55.430Z,11.84
2022-10-10T21:22:21.675Z,11.83
2022-10-10T21:24:47.965Z,10.99
2022-10-10T21:27:14.244Z,11.09
2022-10-10T21:29:40.500Z,11.24
2022-10-10T21:32:06.766Z,11.53
2022-10-10T21:34:33.014Z,11.49
2022-10-10T21:36:59.339Z,11.58
2022-10-10T21:39:26.447Z,11.63
2022-10-10T21:41:52.633Z,11.63
2022-10-10T21:44:18.888Z,11.74
2022-10-10T21:46:45.162Z,11.72
2022-10-10T21:49:11.427Z,11.66
2022-10-10T21:51:38.227Z,11.63
2022-10-10T21:54:04.504Z,11.33
2022-10-10T21:56:30.771Z,11.30
2022-10-10T21:59:00.990Z,11.33
2022-10-10T22:01:27.907Z,11.22
2022-10-10T22:03:54.311Z,11.18
2022-10-10T22:06:20.567Z,11.11
2022-10-10T22:08:46.841Z,11.10
2022-10-10T22:11:13.127Z,11.10
2022-10-10T22:13:39.405Z,11.04
2022-10-10T22:16:06.189Z,11.15
2022-10-10T22:18:32.814Z,11.16
2022-10-10T22:20:59.066Z,10.99
2022-10-10T22:23:25.379Z,10.74
2022-10-10T22:25:51.982Z,10.86
2022-10-10T22:28:18.244Z,10.69
2022-10-10T22:30:44.567Z,10.84
2022-10-10T22:33:10.833Z,10.85
2022-10-10T22:35:37.122Z,10.85
2022-10-10T22:38:03.394Z,10.49
2022-10-10T22:40:29.653Z,10.65
2022-10-10T22:42:55.938Z,10.72
2022-10-10T22:45:22.198Z,10.22
2022-10-10T22:47:48.458Z,10.56
2022-10-10T22:50:14.719Z,10.51
2022-10-10T22:52:40.981Z,10.36
2022-10-10T22:55:07.222Z,10.34
2022-10-10T22:57:33.494Z,10.35
2022-10-10T22:59:59.741Z,10.51
2022-10-10T23:02:26.045Z,10.60
2022-10-10T23:04:52.298Z,10.49
2022-10-10T23:07:20.159Z,10.30
2022-10-10T23:09:46.627Z,10.35
2022-10-10T23:12:12.875Z,10.15
2022-10-10T23:14:39.122Z,10.37
2022-10-10T23:17:05.378Z,10.36
2022-10-10T23:19:31.687Z,10.35
2022-10-10T23:21:57.943Z,10.38
2022-10-10T23:24:24.202Z,10.22
2022-10-10T23:26:50.442Z,10.36
2022-10-10T23:29:16.702Z,10.32
2022-10-10T23:31:42.957Z,10.37
2022-10-10T23:34:09.244Z,10.21
2022-10-10T23:36:35.524Z,10.29
2022-10-10T23:39:03.654Z,10.11
2022-10-10T23:41:32.766Z,10.16
2022-10-10T23:43:59.384Z,10.03
2022-10-10T23:46:25.652Z,10.22
2022-10-10T23:48:51.903Z,10.24
2022-10-10T23:51:18.159Z,10.16
2022-10-10T23:53:44.428Z,10.23
2022-10-10T23:56:10.723Z,10.12
2022-10-10T23:58:36.980Z,10.18
